createdAt,value
2023-04-06T00:04:13.401Z,3.90
2023-04-06T00:08:29.895Z,3.94
2023-04-06T00:12:46.038Z,3.84
2023-04-06T00:17:02.733Z,3.85
2023-04-06T00:21:19.022Z,3.81
2023-04-06T00:25:35.260Z,3.80
2023-04-06T00:29:51.555Z,3.57
2023-04-06T00:34:08.058Z,3.70
2023-04-06T00:38:24.473Z,3.43
2023-04-06T00:42:40.817Z,3.35
2023-04-06T00:46:57.100Z,3.33
2023-04-06T00:51:13.404Z,3.39
2023-04-06T00:55:30.228Z,3.50
2023-04-06T00:59:46.965Z,3.28
2023-04-06T01:04:04.035Z,3.33
2023-04-06T01:08:20.392Z,3.37
2023-04-06T01:12:38.555Z,3.26
2023-04-06T01:16:54.939Z,3.20
2023-04-06T01:21:16.628Z,2.94
2023-04-06T01:25:32.807Z,2.91
2023-04-06T01:29:48.983Z,2.96
2023-04-06T01:34:05.433Z,2.96
2023-04-06T01:38:22.008Z,2.89
2023-04-06T01:42:38.307Z,2.93
2023-04-06T01:46:54.853Z,2.85
2023-04-06T01:51:11.354Z,2.82
2023-04-06T01:55:27.643Z,2.83
2023-04-06T01:59:43.953Z,2.78
2023-04-06T02:04:00.192Z,2.79
2023-04-06T02:08:16.606Z,2.89
2023-04-06T02:12:32.782Z,2.71
2023-04-06T02:16:49.052Z,2.75
2023-04-06T02:21:05.820Z,2.84
2023-04-06T02:25:22.470Z,2.88
2023-04-06T02:29:38.596Z,2.60
2023-04-06T02:33:54.843Z,2.76
2023-04-06T02:38:11.293Z,2.46
2023-04-06T02:42:27.486Z,2.70
2023-04-06T02:46:43.720Z,2.48
2023-04-06T02:50:59.960Z,2.43
2023-04-06T02:55:16.264Z,2.60
2023-04-06T02:59:32.644Z,2.63
2023-04-06T03:03:49.154Z,2.51
2023-04-06T03:08:05.630Z,2.41
2023-04-06T03:12:22.254Z,2.13
2023-04-06T03:16:38.434Z,2.13
2023-04-06T03:20:55.226Z,2.15
2023-04-06T03:25:11.665Z,2.06
2023-04-06T03:29:28.358Z,2.12
2023-04-06T03:33:44.578Z,1.99
2023-04-06T03:38:00.901Z,1.52
2023-04-06T03:42:17.102Z,1.76
2023-04-06T03:46:33.395Z,1.58
2023-04-06T03:50:49.570Z,1.71
2023-04-06T03:55:06.445Z,1.68
2023-04-06T03:59:22.703Z,1.85
2023-04-06T04:03:39.161Z,1.92
2023-04-06T04:07:55.455Z,1.65
2023-04-06T04:12:11.687Z,1.71
2023-04-06T04:16:27.913Z,1.77
2023-04-06T04:20:44.148Z,1.85
2023-04-06T04:25:00.552Z,1.67
2023-04-06T04:29:17.079Z,1.71
2023-04-06T04:33:33.356Z,1.93
2023-04-06T04:37:49.698Z,1.83
2023-04-06T04:42:05.937Z,1.84
2023-04-06T04:46:22.289Z,1.92
2023-04-06T04:50:38.754Z,2.00
2023-04-06T04:54:55.000Z,1.97
2023-04-06T04:59:11.568Z,2.12
2023-04-06T05:03:28.605Z,1.98
2023-04-06T05:07:44.947Z,2.04
2023-04-06T05:12:01.773Z,2.13
2023-04-06T05:16:18.329Z,2.10
2023-04-06T05:20:35.669Z,1.99
2023-04-06T05:24:51.778Z,2.10
2023-04-06T05:29:08.247Z,1.96
2023-04-06T05:33:25.456Z,2.11
2023-04-06T05:37:41.816Z,2.20
2023-04-06T05:41:58.017Z,1.92
2023-04-06T05:46:14.332Z,2.03
2023-04-06T05:50:30.711Z,2.18
2023-04-06T05:54:47.009Z,2.16
2023-04-06T05:59:03.224Z,2.33
2023-04-06T06:03:20.165Z,2.53
2023-04-06T06:07:36.453Z,2.69
2023-04-06T06:11:52.821Z,2.79
2023-04-06T06:16:09.310Z,2.92
2023-04-06T06:20:26.200Z,2.88
2023-04-06T06:24:42.422Z,3.08
2023-04-06T06:28:58.625Z,3.11
2023-04-06T06:33:14.839Z,3.24
2023-04-06T06:37:31.355Z,3.64
2023-04-06T06:41:47.793Z,3.72
2023-04-06T06:46:04.599Z,3.84
2023-04-06T06:50:21.217Z,3.53
2023-04-06T06:54:37.526Z,3.52
2023-04-06T06:58:53.816Z,3.84
2023-04-06T07:03:10.046Z,3.98
2023-04-06T07:07:28.345Z,4.11
2023-04-06T07:11:44.489Z,4.45
2023-04-06T07:16:00.834Z,4.55
2023-04-06T07:20:17.211Z,4.85
2023-04-06T07:24:33.713Z,4.66
2023-04-06T07:28:51.939Z,4.32
2023-04-06T07:33:08.239Z,4.17
2023-04-06T07:37:24.626Z,4.04
2023-04-06T07:41:40.983Z,4.87
2023-04-06T07:45:58.458Z,4.74
2023-04-06T07:50:15.021Z,4.94
2023-04-06T07:54:31.220Z,5.37
2023-04-06T07:58:54.186Z,5.23
2023-04-06T08:03:10.963Z,5.21
2023-04-06T08:07:27.276Z,6.21
2023-04-06T08:11:43.761Z,6.04
2023-04-06T08:16:00.312Z,6.30
2023-04-06T08:20:16.578Z,6.39
2023-04-06T08:24:33.607Z,6.25
2023-04-06T08:28:49.815Z,6.28
2023-04-06T08:33:06.293Z,6.96
2023-04-06T08:37:22.948Z,7.63
2023-04-06T08:41:39.189Z,8.27
2023-04-06T08:45:57.603Z,8.64
2023-04-06T08:50:13.971Z,9.05
2023-04-06T08:54:30.136Z,8.86
2023-04-06T08:58:48.431Z,8.78
2023-04-06T09:03:05.039Z,9.15
2023-04-06T09:07:22.107Z,8.85
2023-04-06T09:11:52.157Z,8.86
2023-04-06T09:16:10.628Z,8.92
2023-04-06T09:20:28.868Z,9.00
2023-04-06T09:24:51.100Z,8.71
2023-04-06T09:29:09.544Z,9.47
2023-04-06T09:33:27.819Z,10.02
2023-04-06T09:37:53.036Z,9.63
2023-04-06T09:42:11.345Z,10.22
2023-04-06T09:46:27.728Z,10.53
2023-04-06T09:50:46.141Z,10.33
2023-04-06T09:55:07.877Z,10.59
2023-04-06T09:59:42.231Z,10.18
2023-04-06T10:04:36.399Z,10.44
2023-04-06T10:08:55.264Z,10.28
2023-04-06T10:13:12.837Z,10.29
2023-04-06T10:17:29.128Z,10.93
2023-04-06T10:21:51.676Z,11.20
2023-04-06T10:26:17.621Z,11.39
2023-04-06T10:30:37.273Z,11.73
2023-04-06T10:34:55.656Z,11.72
2023-04-06T10:39:11.883Z,11.81
2023-04-06T10:43:30.155Z,11.65
2023-04-06T10:47:46.447Z,11.47
2023-04-06T10:52:02.825Z,11.78
2023-04-06T10:56:22.594Z,12.06
2023-04-06T11:00:51.592Z,12.30
2023-04-06T11:05:08.632Z,12.58
2023-04-06T11:09:31.043Z,12.32
2023-04-06T11:13:48.627Z,12.33
2023-04-06T11:18:09.933Z,11.98
2023-04-06T11:22:27.309Z,11.51
2023-04-06T11:26:45.328Z,11.95
2023-04-06T11:31:02.032Z,12.63
2023-04-06T11:35:23.286Z,12.40
2023-04-06T11:39:43.967Z,12.39
2023-04-06T11:44:02.282Z,12.41
2023-04-06T11:48:23.810Z,11.72
2023-04-06T11:52:42.864Z,12.21
2023-04-06T11:56:59.130Z,12.44
2023-04-06T12:01:19.558Z,12.12
2023-04-06T12:05:39.872Z,11.69
2023-04-06T12:09:56.053Z,11.21
2023-04-06T12:14:12.978Z,11.36
2023-04-06T12:18:29.326Z,11.33
2023-04-06T12:22:45.629Z,11.26
2023-04-06T12:27:10.193Z,11.48
2023-04-06T12:31:27.269Z,11.50
2023-04-06T12:35:45.542Z,11.68
2023-04-06T12:40:02.354Z,11.00
2023-04-06T12:44:18.651Z,11.11
2023-04-06T12:48:35.053Z,11.78
2023-04-06T12:52:51.289Z,11.18
2023-04-06T12:57:09.570Z,11.41
2023-04-06T13:01:26.978Z,11.85
2023-04-06T13:05:49.146Z,11.48
2023-04-06T13:10:05.960Z,11.03
2023-04-06T13:14:22.168Z,11.52
2023-04-06T13:18:39.964Z,11.74
2023-04-06T13:22:56.664Z,11.26
2023-04-06T13:27:13.018Z,11.50
2023-04-06T13:31:29.704Z,11.25
2023-04-06T13:35:48.909Z,11.24
2023-04-06T13:40:06.187Z,11.07
2023-04-06T13:44:22.399Z,11.05
2023-04-06T13:48:38.588Z,10.60
2023-04-06T13:52:54.960Z,10.76
2023-04-06T13:57:11.252Z,10.96
2023-04-06T14:01:29.968Z,10.61
2023-04-06T14:05:49.042Z,10.65
2023-04-06T14:10:05.870Z,10.32
2023-04-06T14:14:26.568Z,10.83
2023-04-06T14:18:43.832Z,10.83
2023-04-06T14:23:04.679Z,11.15
2023-04-06T14:27:21.178Z,10.94
2023-04-06T14:31:38.279Z,10.72
2023-04-06T14:35:54.668Z,10.98
2023-04-06T14:40:11.186Z,10.38
2023-04-06T14:44:31.460Z,10.44
2023-04-06T14:48:50.230Z,9.90
2023-04-06T14:53:06.810Z,9.88
2023-04-06T14:57:25.011Z,10.08
2023-04-06T15:01:43.523Z,9.90
2023-04-06T15:06:01.903Z,10.09
2023-04-06T15:10:18.429Z,9.37
2023-04-06T15:14:34.596Z,9.73
2023-04-06T15:18:52.853Z,9.61
2023-04-06T15:23:09.059Z,9.75
2023-04-06T15:27:25.838Z,9.46
2023-04-06T15:31:42.746Z,9.61
2023-04-06T15:35:59.130Z,9.37
2023-04-06T15:40:16.939Z,9.09
2023-04-06T15:44:33.262Z,8.95
2023-04-06T15:48:49.544Z,9.15
2023-04-06T15:53:06.145Z,8.89
2023-04-06T15:57:22.370Z,8.58
2023-04-06T16:01:38.720Z,8.51
2023-04-06T16:06:08.022Z,8.41
2023-04-06T16:10:25.403Z,8.28
2023-04-06T16:14:41.709Z,8.24
2023-04-06T16:18:57.982Z,8.21
2023-04-06T16:23:14.257Z,7.67
2023-04-06T16:27:30.795Z,7.68
2023-04-06T16:31:47.578Z,7.56
2023-04-06T16:36:03.993Z,7.08
2023-04-06T16:40:20.354Z,7.02
2023-04-06T16:44:36.635Z,6.81
2023-04-06T16:48:52.910Z,6.72
2023-04-06T16:53:12.846Z,6.75
2023-04-06T16:57:31.806Z,6.44
2023-04-06T17:01:48.182Z,6.50
2023-04-06T17:06:04.582Z,6.75
2023-04-06T17:10:28.787Z,6.16
2023-04-06T17:14:49.806Z,5.90
2023-04-06T17:19:06.306Z,5.65
2023-04-06T17:23:24.394Z,5.62
2023-04-06T17:27:40.591Z,5.42
2023-04-06T17:31:56.804Z,5.47
2023-04-06T17:36:15.222Z,5.43
2023-04-06T17:40:32.129Z,5.48
2023-04-06T17:44:51.529Z,5.51
2023-04-06T17:49:09.605Z,5.09
2023-04-06T17:53:25.966Z,5.52
2023-04-06T17:57:47.451Z,5.36
2023-04-06T18:02:04.548Z,5.17
2023-04-06T18:06:21.979Z,5.02
2023-04-06T18:10:39.567Z,5.04
2023-04-06T18:14:55.837Z,4.85
2023-04-06T18:19:12.186Z,5.14
2023-04-06T18:23:28.438Z,5.34
2023-04-06T18:27:44.686Z,5.57
2023-04-06T18:32:01.071Z,5.39
2023-04-06T18:36:17.292Z,5.22
2023-04-06T18:40:38.225Z,5.55
2023-04-06T18:44:55.096Z,5.58
2023-04-06T18:49:11.540Z,5.59
2023-04-06T18:53:29.364Z,5.78
2023-04-06T18:57:46.402Z,5.63
2023-04-06T19:02:02.730Z,5.80
2023-04-06T19:06:19.037Z,5.62
2023-04-06T19:10:35.891Z,5.53
2023-04-06T19:14:52.386Z,5.75
2023-04-06T19:19:08.791Z,5.79
2023-04-06T19:23:25.219Z,5.74
2023-04-06T19:27:41.465Z,6.01
2023-04-06T19:31:57.670Z,6.13
2023-04-06T19:36:14.166Z,5.77
2023-04-06T19:40:30.617Z,5.95
2023-04-06T19:44:46.855Z,6.05
2023-04-06T19:49:03.125Z,5.78
2023-04-06T19:53:19.307Z,5.84
2023-04-06T19:57:35.549Z,5.67
2023-04-06T20:01:52.002Z,5.73
2023-04-06T20:06:08.817Z,5.30
2023-04-06T20:10:25.128Z,4.91
2023-04-06T20:14:41.485Z,4.96
2023-04-06T20:18:57.697Z,4.81
2023-04-06T20:23:13.977Z,5.18
2023-04-06T20:27:30.145Z,5.09
2023-04-06T20:31:46.960Z,4.74
2023-04-06T20:36:03.699Z,4.55
2023-04-06T20:40:20.928Z,4.88
2023-04-06T20:44:37.338Z,4.82
2023-04-06T20:48:54.084Z,4.72
2023-04-06T20:53:10.768Z,4.80
2023-04-06T20:57:27.090Z,4.33
2023-04-06T21:01:44.750Z,4.80
2023-04-06T21:06:02.438Z,4.67
2023-04-06T21:10:18.815Z,4.81
2023-04-06T21:14:35.645Z,4.81
2023-04-06T21:18:52.099Z,4.85
2023-04-06T21:23:08.306Z,5.05
2023-04-06T21:27:25.085Z,5.10
2023-04-06T21:31:42.428Z,4.98
2023-04-06T21:35:58.849Z,5.03
2023-04-06T21:40:15.237Z,4.98
2023-04-06T21:44:31.561Z,5.11
2023-04-06T21:48:48.100Z,4.68
2023-04-06T21:53:04.345Z,4.54
2023-04-06T21:57:20.608Z,4.86
2023-04-06T22:01:36.874Z,4.53
2023-04-06T22:05:53.079Z,4.40
2023-04-06T22:10:09.551Z,4.63
2023-04-06T22:14:26.153Z,4.74
2023-04-06T22:18:42.402Z,4.44
2023-04-06T22:22:58.614Z,4.44
2023-04-06T22:27:14.875Z,4.73
2023-04-06T22:31:31.587Z,4.36
2023-04-06T22:35:47.894Z,4.13
2023-04-06T22:40:04.324Z,4.48
2023-04-06T22:44:20.676Z,4.47
2023-04-06T22:48:37.105Z,4.57
2023-04-06T22:52:53.425Z,4.91
2023-04-06T22:57:09.730Z,4.83
2023-04-06T23:01:26.055Z,4.87
2023-04-06T23:05:42.529Z,4.99
2023-04-06T23:09:59.361Z,5.06
2023-04-06T23:14:16.222Z,5.16
2023-04-06T23:18:32.508Z,4.96
2023-04-06T23:22:48.764Z,5.20
2023-04-06T23:27:05.102Z,5.18
2023-04-06T23:31:21.409Z,5.04
2023-04-06T23:35:37.655Z,5.12
2023-04-06T23:39:53.871Z,5.47
2023-04-06T23:44:10.160Z,5.32
2023-04-06T23:48:26.324Z,5.54
2023-04-06T23:52:42.547Z,5.40
2023-04-06T23:56:58.723Z,5.23
